Time;durP1;ratioP1;P1;durP2;ratioP2;P2;SDS_P1;SDS_P2;PMS_P1;PMS_P2;Temp;Humidity;BMP_temperature;BMP_pressure;BME280_temperature;BME280_humidity;BME280_pressure;Samples;Min_cycle;Max_cycle;Signal;HPM_P1;HPM_P2
2022/07/09 00:02:03;;;;;;;4.00;1.90;;;;;;;13.83;74.54;98947.59;104672;1271;62021;-25
2022/07/09 00:04:31;;;;;;;2.50;1.30;;;;;;;13.60;75.81;98949.56;104443;1271;76546;-24
2022/07/09 00:07:00;;;;;;;1.80;1.30;;;;;;;13.99;74.71;98950.92;104671;1273;76935;-24
2022/07/09 00:09:27;;;;;;;2.60;1.60;;;;;;;14.40;72.97;98953.69;104722;1271;75133;-24
2022/07/09 00:11:56;;;;;;;2.80;1.90;;;;;;;14.44;72.19;98956.64;104545;1272;61885;-24
2022/07/09 00:14:23;;;;;;;2.50;1.70;;;;;;;14.30;72.45;98956.49;104699;1271;63095;-24
2022/07/09 00:16:54;;;;;;;5.40;1.80;;;;;;;14.12;72.66;98958.55;104635;1273;76682;-24
2022/07/09 00:19:21;;;;;;;4.00;2.20;;;;;;;13.92;72.96;98958.06;104681;1272;77046;-24
2022/07/09 00:21:48;;;;;;;3.10;2.20;;;;;;;13.71;73.38;98961.09;104723;1273;75126;-24
2022/07/09 00:24:16;;;;;;;1.60;1.10;;;;;;;13.50;73.92;98959.65;104595;1273;62363;-24
2022/07/09 00:26:43;;;;;;;2.10;1.60;;;;;;;13.79;73.54;98960.66;104635;1274;61056;-24
2022/07/09 00:29:10;;;;;;;5.30;1.70;;;;;;;14.21;72.57;98966.95;104667;1273;76778;-25
2022/07/09 00:31:38;;;;;;;6.30;3.10;;;;;;;14.18;72.07;98970.23;104701;1272;77017;-24
2022/07/09 00:34:05;;;;;;;5.60;3.00;;;;;;;13.93;72.79;98973.82;104669;1271;75450;-24
2022/07/09 00:36:33;;;;;;;8.80;2.60;;;;;;;13.63;73.97;98977.00;104558;1272;61127;-24
2022/07/09 00:39:00;;;;;;;3.20;2.30;;;;;;;13.39;74.67;98976.61;104673;1272;63059;-24
2022/07/09 00:41:27;;;;;;;4.10;2.70;;;;;;;13.18;75.60;98978.57;104611;1274;75591;-25
2022/07/09 00:43:55;;;;;;;3.00;1.70;;;;;;;13.05;76.03;98976.69;104656;1271;75787;-24
2022/07/09 00:46:22;;;;;;;4.50;2.10;;;;;;;13.51;75.31;98974.66;104393;1273;74343;-24
2022/07/09 00:48:49;;;;;;;6.00;2.30;;;;;;;14.01;73.00;98976.90;104623;1273;62234;-24
2022/07/09 00:51:17;;;;;;;3.40;2.10;;;;;;;14.04;72.38;98974.18;104656;1272;61947;-24
2022/07/09 00:53:45;;;;;;;3.50;2.00;;;;;;;13.87;72.62;98978.42;104681;1274;75493;-24
2022/07/09 00:56:12;;;;;;;3.10;2.50;;;;;;;13.64;73.22;98973.67;104669;1273;74949;-24
2022/07/09 00:58:41;;;;;;;7.00;2.10;;;;;;;13.41;74.02;98969.48;104735;1271;75369;-24
2022/07/09 01:01:09;;;;;;;5.10;3.10;;;;;;;13.18;74.72;98977.02;104521;1273;62901;-24
2022/07/09 01:03:36;;;;;;;3.20;1.60;;;;;;;13.00;75.58;98977.34;104544;1273;61711;-24
2022/07/09 01:06:04;;;;;;;5.70;2.00;;;;;;;13.35;74.95;98980.32;104641;1273;76524;-24
2022/07/09 01:08:32;;;;;;;2.40;2.00;;;;;;;13.77;73.09;98973.58;104683;1273;75928;-25
2022/07/09 01:10:59;;;;;;;3.00;2.50;;;;;;;13.72;72.60;98974.23;104758;1271;76003;-24
2022/07/09 01:13:27;;;;;;;6.00;2.90;;;;;;;13.43;73.67;98973.84;104578;1273;62811;-24
2022/07/09 01:15:54;;;;;;;6.50;2.80;;;;;;;13.18;74.43;98978.38;104332;1273;383125;-24
2022/07/09 01:18:21;;;;;;;8.50;3.00;;;;;;;12.93;75.62;98974.30;104877;1273;76573;-24
2022/07/09 01:20:50;;;;;;;4.50;3.10;;;;;;;12.75;76.24;98976.11;104922;1273;77038;-24
2022/07/09 01:23:18;;;;;;;3.90;2.20;;;;;;;12.62;76.62;98976.21;104595;1273;74348;-24
2022/07/09 01:25:45;;;;;;;5.80;2.00;;;;;;;13.13;75.80;98973.48;104951;1273;63135;-24
2022/07/09 01:28:14;;;;;;;4.50;2.30;;;;;;;13.69;73.37;98972.15;104843;1273;61112;-24
2022/07/09 01:30:41;;;;;;;6.30;2.30;;;;;;;13.73;72.64;98974.71;104743;1273;76509;-24
2022/07/09 01:33:09;;;;;;;4.10;2.60;;;;;;;13.55;72.93;98973.12;104614;1273;74924;-24
2022/07/09 01:35:36;;;;;;;4.30;2.40;;;;;;;13.35;73.48;98974.77;104585;1273;74063;-25
2022/07/09 01:38:04;;;;;;;4.10;2.40;;;;;;;13.14;73.77;98974.65;104644;1273;61143;-24
2022/07/09 01:40:31;;;;;;;5.20;2.70;;;;;;;12.94;74.03;98982.03;104920;1273;60969;-24
2022/07/09 01:42:59;;;;;;;3.30;1.60;;;;;;;12.72;75.29;98982.85;104654;1273;75638;-24
2022/07/09 01:45:26;;;;;;;2.70;1.50;;;;;;;13.09;74.94;98977.52;104582;1273;75346;-24
2022/07/09 01:47:54;;;;;;;4.00;2.40;;;;;;;13.62;73.25;98968.27;104656;1273;74509;-24
2022/07/09 01:50:21;;;;;;;4.20;2.00;;;;;;;13.69;72.28;98971.57;104601;1273;61960;-25
2022/07/09 01:52:50;;;;;;;5.90;2.30;;;;;;;13.46;72.56;98973.37;104797;1273;63188;-24
2022/07/09 01:55:18;;;;;;;4.20;2.40;;;;;;;13.11;73.93;98970.23;104772;1273;76611;-24
2022/07/09 01:57:45;;;;;;;3.80;2.50;;;;;;;12.77;75.17;98973.63;104734;1273;77050;-24
2022/07/09 02:00:13;;;;;;;4.60;2.90;;;;;;;12.47;76.35;98971.31;104717;1273;75416;-24
2022/07/09 02:02:42;;;;;;;3.50;1.60;;;;;;;12.29;77.13;98969.61;104584;1273;61092;-25
2022/07/09 02:05:10;;;;;;;3.50;1.70;;;;;;;12.76;76.31;98969.20;104754;1273;62015;-24
2022/07/09 02:07:37;;;;;;;3.10;2.10;;;;;;;13.26;74.40;98967.05;104761;1273;76567;-25
2022/07/09 02:10:05;;;;;;;5.30;2.50;;;;;;;13.31;73.57;98962.92;104835;1273;76024;-24
2022/07/09 02:12:35;;;;;;;6.00;2.90;;;;;;;13.17;73.62;98963.90;104793;1273;74343;-24
2022/07/09 02:15:03;;;;;;;7.20;3.50;;;;;;;12.91;74.20;98963.11;104822;1273;63142;-24
2022/07/09 02:17:32;;;;;;;6.60;4.10;;;;;;;12.62;74.84;98967.56;104811;1274;63056;-24
2022/07/09 02:20:00;;;;;;;6.00;3.60;;;;;;;12.34;76.38;98964.31;104710;1273;76603;-24
2022/07/09 02:22:27;;;;;;;3.50;1.90;;;;;;;12.17;76.50;98966.29;104663;1273;74810;-24
2022/07/09 02:24:54;;;;;;;5.00;2.90;;;;;;;12.61;76.11;98963.07;105005;1273;75384;-24
2022/07/09 02:27:22;;;;;;;5.20;3.60;;;;;;;13.10;74.31;98956.52;104671;1273;61976;-24
2022/07/09 02:29:49;;;;;;;7.20;3.70;;;;;;;13.09;73.65;98956.26;104592;1273;63016;-24
2022/07/09 02:32:16;;;;;;;8.10;3.60;;;;;;;12.87;74.26;98955.98;104587;1273;75207;-24
2022/07/09 02:34:44;;;;;;;5.40;3.90;;;;;;;12.62;74.67;98957.75;104666;1273;77587;-24
2022/07/09 02:37:11;;;;;;;6.40;4.20;;;;;;;12.37;75.82;98954.78;104587;1273;74646;-24
2022/07/09 02:41:50;;;;;;;3.90;2.70;;;;;;;12.38;75.99;98952.64;102017;1307;601407;-23
2022/07/09 02:44:18;;;;;;;6.40;4.10;;;;;;;12.72;75.06;98960.04;103951;1287;62808;-23
2022/07/09 02:46:45;;;;;;;9.30;4.20;;;;;;;12.54;75.53;98963.70;104395;1284;61715;-23
2022/07/09 02:49:12;;;;;;;7.30;4.00;;;;;;;12.36;76.50;98961.33;104423;1284;74990;-23
2022/07/09 02:51:40;;;;;;;7.20;3.90;;;;;;;12.21;77.27;98961.91;104258;1285;76812;-23
2022/07/09 02:54:07;;;;;;;6.70;4.30;;;;;;;12.01;78.32;98960.23;104332;1284;74376;-23
2022/07/09 02:56:34;;;;;;;4.40;2.90;;;;;;;11.89;79.42;98960.88;104135;1281;393789;-23
2022/07/09 02:59:03;;;;;;;3.80;3.00;;;;;;;12.36;77.88;98971.59;104514;1281;63456;-24
2022/07/09 03:01:30;;;;;;;8.60;3.80;;;;;;;12.79;75.89;98975.55;104394;1281;75009;-23
2022/07/09 03:03:58;;;;;;;5.60;3.90;;;;;;;12.85;75.33;98973.58;104404;1281;76992;-23
2022/07/09 03:06:27;;;;;;;6.30;3.60;;;;;;;12.74;75.45;98974.67;104461;1281;75451;-23
2022/07/09 03:08:55;;;;;;;3.80;3.30;;;;;;;12.60;75.91;98974.81;104448;1281;61808;-23
2022/07/09 03:11:22;;;;;;;5.70;4.20;;;;;;;12.53;76.34;98975.98;104448;1281;61645;-23
2022/07/09 03:13:50;;;;;;;6.80;2.40;;;;;;;12.59;76.41;98975.56;104399;1281;75806;-23
2022/07/09 03:16:17;;;;;;;5.40;2.80;;;;;;;13.30;74.49;98969.77;104432;1281;75914;-23
2022/07/09 03:18:45;;;;;;;4.60;2.90;;;;;;;14.15;71.28;98966.98;104426;1281;74409;-23
2022/07/09 03:21:12;;;;;;;7.60;2.80;;;;;;;14.53;69.62;98967.70;104415;1281;62698;-23
2022/07/09 03:23:39;;;;;;;4.30;2.80;;;;;;;14.61;69.11;98967.92;104426;1281;63057;-23
2022/07/09 03:26:07;;;;;;;5.00;3.20;;;;;;;14.63;69.08;98968.20;104420;1281;75563;-24
2022/07/09 03:28:34;;;;;;;5.80;3.30;;;;;;;14.65;68.89;98971.16;104471;1281;77023;-23
2022/07/09 03:31:03;;;;;;;4.30;3.00;;;;;;;14.77;69.09;98974.80;104383;1281;75740;-23
2022/07/09 03:33:30;;;;;;;2.80;2.10;;;;;;;14.90;68.77;98975.52;104189;1281;62794;-23
2022/07/09 03:35:58;;;;;;;5.00;2.30;;;;;;;15.57;67.26;98972.98;103954;1281;61679;-23
2022/07/09 03:38:25;;;;;;;4.90;2.80;;;;;;;16.29;64.99;98977.11;104105;1284;75743;-23
2022/07/09 03:40:52;;;;;;;8.50;2.80;;;;;;;16.50;64.21;98975.06;103926;1281;77076;-23
2022/07/09 03:43:20;;;;;;;7.30;3.00;;;;;;;16.55;64.52;98973.98;104215;1281;74805;-23
2022/07/09 03:45:47;;;;;;;6.80;3.30;;;;;;;16.43;65.24;98972.37;104299;1281;62053;-23
2022/07/09 03:48:15;;;;;;;4.40;2.70;;;;;;;16.44;65.96;98971.30;103996;1281;62954;-23
2022/07/09 03:50:42;;;;;;;11.40;4.30;;;;;;;16.44;66.26;98970.80;104463;1281;75734;-23
2022/07/09 03:53:10;;;;;;;8.20;3.80;;;;;;;16.38;66.92;98971.75;104442;1281;77186;-23
2022/07/09 03:55:38;;;;;;;7.30;4.30;;;;;;;16.42;67.08;98970.89;103865;1284;74067;-23
2022/07/09 03:58:05;;;;;;;10.80;3.60;;;;;;;16.53;66.71;98965.73;104289;1281;64492;-23
2022/07/09 04:00:32;;;;;;;6.20;2.90;;;;;;;17.16;64.95;98962.15;104431;1281;61458;-23
2022/07/09 04:03:00;;;;;;;5.50;2.60;;;;;;;17.77;63.10;98961.36;104428;1281;74682;-23
2022/07/09 04:05:28;;;;;;;3.50;2.20;;;;;;;18.00;61.89;98956.46;104066;1281;75106;-23
2022/07/09 04:07:55;;;;;;;2.70;2.20;;;;;;;17.99;61.74;98957.51;104436;1281;75303;-23
2022/07/09 04:10:22;;;;;;;3.60;2.50;;;;;;;18.04;62.03;98956.38;104493;1281;61127;-23
2022/07/09 04:12:50;;;;;;;4.00;2.20;;;;;;;18.01;61.32;98953.43;104388;1281;62690;-23
2022/07/09 04:15:17;;;;;;;4.20;2.50;;;;;;;17.99;61.75;98950.77;104280;1281;75473;-23
2022/07/09 04:17:44;;;;;;;4.30;2.60;;;;;;;18.07;62.60;98946.56;104257;1281;76030;-23
2022/07/09 04:20:12;;;;;;;3.10;2.50;;;;;;;18.07;62.69;98948.20;104375;1282;75338;-23
2022/07/09 04:22:39;;;;;;;4.30;2.30;;;;;;;17.93;61.97;98946.26;104319;1281;62751;-23
2022/07/09 04:25:07;;;;;;;4.10;2.40;;;;;;;17.78;62.90;98949.14;104716;1275;61404;-23
2022/07/09 04:27:39;;;;;;;4.70;2.40;;;;;;;17.58;64.17;98949.98;104369;1274;74728;-23
2022/07/09 04:30:08;;;;;;;3.00;2.10;;;;;;;17.38;63.67;98954.42;104674;1275;76984;-23
2022/07/09 04:32:36;;;;;;;4.10;2.10;;;;;;;17.31;64.37;98950.80;104575;1275;74071;-23
2022/07/09 04:35:05;;;;;;;2.40;2.00;;;;;;;17.30;64.07;98953.64;104398;1274;61098;-23
2022/07/09 04:37:32;;;;;;;2.40;2.00;;;;;;;17.32;64.27;98959.97;104511;1274;61473;-23
2022/07/09 04:39:59;;;;;;;6.70;2.40;;;;;;;17.45;63.64;98963.31;104560;1274;75708;-23
2022/07/09 04:42:26;;;;;;;8.60;2.60;;;;;;;17.70;62.58;98963.77;104585;1275;76873;-23
2022/07/09 04:44:54;;;;;;;5.50;3.00;;;;;;;17.93;61.80;98963.52;104691;1274;75711;-23
2022/07/09 04:47:21;;;;;;;8.70;3.30;;;;;;;18.21;61.18;98963.48;104806;1275;62850;-23
2022/07/09 04:49:49;;;;;;;6.70;2.80;;;;;;;18.51;60.23;98961.92;104699;1274;62769;-23
2022/07/09 04:52:19;;;;;;;7.60;2.60;;;;;;;18.74;58.84;98962.91;104791;1271;74769;-23
2022/07/09 04:54:47;;;;;;;3.70;2.60;;;;;;;18.86;58.16;98963.81;104952;1271;77311;-23
2022/07/09 04:57:14;;;;;;;8.00;2.20;;;;;;;18.94;57.62;98963.45;104899;1271;74034;-23
2022/07/09 04:59:42;;;;;;;6.40;3.10;;;;;;;19.14;58.23;98962.33;104838;1271;61041;-23
2022/07/09 05:02:10;;;;;;;3.50;3.10;;;;;;;19.28;56.78;98963.15;104842;1271;61704;-23
2022/07/09 05:04:38;;;;;;;6.80;2.40;;;;;;;19.76;57.12;98966.29;104974;1271;75789;-23
2022/07/09 05:07:05;;;;;;;2.40;2.10;;;;;;;20.31;56.04;98965.77;105061;1271;77094;-23
2022/07/09 05:09:33;;;;;;;2.90;2.00;;;;;;;20.81;54.00;98965.02;104826;1271;75417;-23
2022/07/09 05:12:00;;;;;;;7.20;4.20;;;;;;;21.26;54.15;98962.02;105120;1271;61978;-23
2022/07/09 05:14:28;;;;;;;4.70;1.90;;;;;;;21.49;51.78;98958.23;104862;1271;61150;-23
2022/07/09 05:16:55;;;;;;;3.80;1.90;;;;;;;21.99;52.51;98954.10;104979;1271;75815;-23
2022/07/09 05:19:23;;;;;;;4.70;1.80;;;;;;;22.34;51.79;98954.36;105164;1271;75931;-23
2022/07/09 05:21:50;;;;;;;5.30;1.90;;;;;;;22.56;49.56;98953.89;105051;1272;74432;-23
2022/07/09 05:24:17;;;;;;;2.60;1.70;;;;;;;22.66;50.16;98952.85;104855;1271;61917;-23
2022/07/09 05:26:45;;;;;;;3.10;1.80;;;;;;;22.62;48.93;98950.66;104857;1271;63010;-23
2022/07/09 05:29:12;;;;;;;4.30;1.90;;;;;;;22.47;50.54;98948.01;104992;1271;75778;-23
2022/07/09 05:31:39;;;;;;;4.60;1.80;;;;;;;21.48;51.90;98952.69;104807;1271;76790;-23
2022/07/09 05:34:07;;;;;;;2.10;1.60;;;;;;;20.99;53.89;98954.89;104911;1271;75507;-23
2022/07/09 05:36:35;;;;;;;2.50;1.70;;;;;;;20.74;54.85;98952.81;105140;1271;63080;-23
2022/07/09 05:39:02;;;;;;;4.70;1.60;;;;;;;20.51;55.58;98954.59;105135;1271;62944;-23
2022/07/09 05:41:30;;;;;;;2.20;1.60;;;;;;;20.35;56.84;98956.75;105124;1271;75878;-24
2022/07/09 05:43:57;;;;;;;2.10;1.50;;;;;;;20.23;57.21;98952.30;104879;1271;75978;-23
2022/07/09 05:46:25;;;;;;;6.20;2.30;;;;;;;20.07;57.66;98952.35;105015;1271;74234;-23
2022/07/09 05:48:52;;;;;;;1.80;1.50;;;;;;;19.93;57.40;98952.71;105022;1271;62829;-23
2022/07/09 05:51:19;;;;;;;2.10;1.60;;;;;;;19.81;57.83;98947.02;105113;1271;61104;-23
2022/07/09 05:53:47;;;;;;;4.20;1.90;;;;;;;19.61;57.31;98947.88;105108;1271;74550;-23
2022/07/09 05:56:14;;;;;;;3.90;2.20;;;;;;;19.47;58.22;98945.73;105131;1271;76962;-23
2022/07/09 05:58:41;;;;;;;2.80;1.90;;;;;;;19.33;59.03;98946.95;104919;1270;74423;-23
2022/07/09 06:01:08;;;;;;;5.50;1.90;;;;;;;19.27;58.76;98948.31;104828;1271;62763;-23
2022/07/09 06:03:36;;;;;;;3.60;1.90;;;;;;;19.35;59.08;98940.46;104920;1271;63168;-23
2022/07/09 06:06:04;;;;;;;2.00;1.80;;;;;;;19.40;58.09;98938.64;105123;1271;75777;-23
2022/07/09 06:08:34;;;;;;;2.20;1.80;;;;;;;19.60;57.05;98930.48;105158;1271;76998;-25
2022/07/09 06:11:03;;;;;;;4.90;2.10;;;;;;;19.76;57.39;98927.69;105114;1271;74200;-24
2022/07/09 06:13:30;;;;;;;1.90;1.70;;;;;;;20.00;57.00;98928.17;104858;1271;61678;-24
2022/07/09 06:15:57;;;;;;;5.50;1.90;;;;;;;20.18;56.17;98923.78;104853;1271;62032;-23
2022/07/09 06:18:25;;;;;;;4.40;2.00;;;;;;;20.40;54.32;98924.84;105124;1271;75107;-23
2022/07/09 06:20:52;;;;;;;3.50;1.80;;;;;;;20.77;53.83;98923.56;104961;1271;76972;-23
2022/07/09 06:23:21;;;;;;;3.30;2.10;;;;;;;21.24;52.91;98917.48;104916;1271;74318;-24
2022/07/09 06:25:48;;;;;;;3.30;2.30;;;;;;;21.33;51.44;98911.77;104917;1271;61067;-24
2022/07/09 06:28:16;;;;;;;3.20;2.00;;;;;;;21.11;52.91;98912.59;104740;1271;62059;-24
2022/07/09 06:30:43;;;;;;;2.90;2.00;;;;;;;21.10;54.19;98911.36;104943;1271;74765;-24
2022/07/09 06:33:11;;;;;;;4.60;2.10;;;;;;;21.16;54.41;98902.75;105042;1271;75740;-24
2022/07/09 06:35:41;;;;;;;7.30;2.40;;;;;;;21.02;55.08;98900.83;104940;1271;75839;-25
2022/07/09 06:38:08;;;;;;;8.80;3.20;;;;;;;21.18;55.15;98895.77;105129;1271;62941;-24
2022/07/09 06:40:35;;;;;;;3.40;2.10;;;;;;;21.26;55.52;98894.94;105145;1271;63076;-24
2022/07/09 06:43:03;;;;;;;3.10;2.10;;;;;;;21.13;54.86;98894.52;105088;1271;74733;-24
2022/07/09 06:45:32;;;;;;;4.90;2.20;;;;;;;20.88;55.11;98896.15;104920;1271;76788;-24
2022/07/09 06:48:00;;;;;;;3.60;2.30;;;;;;;20.75;55.61;98894.16;104851;1271;74365;-24
2022/07/09 06:50:27;;;;;;;3.20;2.10;;;;;;;20.55;56.56;98890.52;104864;1271;62863;-24
2022/07/09 06:52:55;;;;;;;2.50;2.20;;;;;;;20.59;57.33;98884.89;104901;1271;61131;-24
2022/07/09 06:55:22;;;;;;;5.80;2.40;;;;;;;20.65;56.75;98885.67;105106;1271;76606;-24
2022/07/09 06:57:50;;;;;;;5.60;2.10;;;;;;;20.69;57.15;98885.58;105096;1271;76876;-24
2022/07/09 07:00:17;;;;;;;5.80;2.00;;;;;;;20.47;56.66;98884.62;105131;1271;75330;-24
2022/07/09 07:02:45;;;;;;;7.00;2.10;;;;;;;20.47;57.40;98885.89;105121;1271;61893;-24
2022/07/09 07:05:12;;;;;;;3.90;2.10;;;;;;;20.51;56.41;98888.19;104885;1271;62410;-24
2022/07/09 07:07:44;;;;;;;3.20;2.00;;;;;;;20.60;56.86;98885.84;104904;1271;76478;-24
2022/07/09 07:10:11;;;;;;;3.20;2.20;;;;;;;20.76;55.87;98886.98;104929;1271;77015;-24
2022/07/09 07:12:40;;;;;;;2.90;2.30;;;;;;;20.70;56.09;98884.23;104981;1271;74073;-24
2022/07/09 07:15:08;;;;;;;3.10;2.10;;;;;;;20.77;56.40;98884.08;105114;1271;62891;-24
2022/07/09 07:17:35;;;;;;;3.10;2.40;;;;;;;20.77;56.13;98879.27;104844;1271;62995;-24
2022/07/09 07:20:03;;;;;;;3.60;2.20;;;;;;;20.64;55.74;98876.51;104998;1271;75269;-23
2022/07/09 07:22:31;;;;;;;3.90;2.40;;;;;;;20.52;56.40;98877.70;105133;1271;75511;-23
2022/07/09 07:24:58;;;;;;;3.60;2.10;;;;;;;20.81;56.12;98872.81;105063;1271;75120;-23
2022/07/09 07:27:25;;;;;;;2.80;2.00;;;;;;;21.03;54.84;98870.41;104948;1271;62792;-23
2022/07/09 07:29:53;;;;;;;2.80;1.70;;;;;;;21.20;54.70;98869.73;104995;1271;61808;-23
2022/07/09 07:32:20;;;;;;;3.10;1.70;;;;;;;21.61;53.79;98868.46;104932;1271;76489;-23
2022/07/09 07:34:47;;;;;;;3.50;1.70;;;;;;;22.09;50.15;98864.55;105126;1271;75685;-23
2022/07/09 07:37:15;;;;;;;3.10;1.40;;;;;;;22.53;48.34;98861.97;104948;1270;75511;-23
2022/07/09 07:39:42;;;;;;;3.50;1.60;;;;;;;22.77;47.80;98858.59;104997;1271;63072;-23
2022/07/09 07:42:09;;;;;;;3.30;1.50;;;;;;;22.95;47.19;98861.02;105027;1271;61790;-23
2022/07/09 07:44:37;;;;;;;2.50;1.30;;;;;;;23.05;46.50;98857.05;104892;1271;76423;-23
2022/07/09 07:47:04;;;;;;;2.60;1.50;;;;;;;23.11;47.02;98856.99;104878;1271;75721;-23
2022/07/09 07:49:31;;;;;;;3.20;1.50;;;;;;;23.11;47.87;98851.80;105147;1271;75136;-23
2022/07/09 07:51:59;;;;;;;3.70;1.90;;;;;;;23.24;48.09;98851.80;105092;1271;61692;-23
2022/07/09 07:54:26;;;;;;;2.10;1.50;;;;;;;23.20;48.31;98849.85;105021;1271;63121;-25
2022/07/09 07:56:54;;;;;;;3.20;1.20;;;;;;;23.13;47.10;98852.04;104868;1271;75202;-23
2022/07/09 07:59:21;;;;;;;2.60;1.30;;;;;;;23.04;47.60;98854.33;105056;1271;77016;-23
2022/07/09 08:01:48;;;;;;;3.70;1.50;;;;;;;23.16;46.71;98845.61;105120;1271;75460;-24
2022/07/09 08:04:17;;;;;;;3.30;1.50;;;;;;;23.27;47.17;98843.70;104806;1271;62075;-23
2022/07/09 08:06:45;;;;;;;5.00;1.40;;;;;;;23.40;46.09;98843.30;105044;1271;61150;-24
2022/07/09 08:09:12;;;;;;;3.90;1.20;;;;;;;23.49;45.20;98840.83;104810;1271;76257;-23
2022/07/09 08:11:40;;;;;;;1.60;1.20;;;;;;;23.64;44.47;98843.02;104971;1271;77018;-25
2022/07/09 08:14:08;;;;;;;4.20;1.30;;;;;;;23.74;43.34;98851.16;104785;1272;75447;-25
2022/07/09 08:16:36;;;;;;;26.50;2.50;;;;;;;23.83;42.21;98844.05;105125;1271;62964;-25
2022/07/09 08:19:03;;;;;;;8.10;1.30;;;;;;;24.10;42.93;98841.18;104948;1271;62914;-25
2022/07/09 08:21:31;;;;;;;2.40;1.40;;;;;;;24.26;41.98;98844.77;105144;1271;76582;-23
2022/07/09 08:24:00;;;;;;;2.00;1.20;;;;;;;24.58;41.41;98841.28;105176;1271;77094;-23
2022/07/09 08:26:28;;;;;;;1.00;0.90;;;;;;;24.75;39.00;98834.98;104881;1271;75497;-23
2022/07/09 08:28:56;;;;;;;5.30;1.10;;;;;;;24.55;38.73;98837.89;104908;1271;62407;-24
2022/07/09 08:31:24;;;;;;;1.50;0.90;;;;;;;24.17;38.51;98834.10;105167;1271;63011;-25
2022/07/09 08:33:51;;;;;;;28.40;14.60;;;;;;;24.36;37.95;98830.73;105124;1271;76555;-25
2022/07/09 08:36:19;;;;;;;2.60;1.50;;;;;;;24.20;38.51;98827.55;105151;1271;75989;-23
2022/07/09 08:38:49;;;;;;;2.70;0.90;;;;;;;24.48;38.80;98827.91;105172;1272;74993;-24
2022/07/09 08:41:19;;;;;;;1.70;1.00;;;;;;;24.65;37.30;98832.29;105020;1271;61143;-23
2022/07/09 08:43:52;;;;;;;4.70;2.00;;;;;;;24.62;37.87;98830.96;104732;1271;61901;-25
2022/07/09 08:46:20;;;;;;;5.20;2.10;;;;;;;24.95;37.43;98820.86;105167;1271;76712;-24
2022/07/09 08:48:48;;;;;;;4.30;1.00;;;;;;;25.69;36.52;98819.52;104948;1271;75909;-24
2022/07/09 08:51:19;;;;;;;2.40;0.90;;;;;;;25.88;35.76;98817.55;104705;1272;75500;-25
2022/07/09 08:53:47;;;;;;;1.40;0.90;;;;;;;25.19;35.40;98817.45;104840;1271;61021;-25
2022/07/09 08:56:14;;;;;;;77.10;4.90;;;;;;;25.74;34.88;98818.24;104992;1271;61966;-24
2022/07/09 08:58:42;;;;;;;3.10;0.90;;;;;;;25.71;36.15;98818.92;105057;1272;76332;-24
2022/07/09 09:01:14;;;;;;;3.70;1.00;;;;;;;25.63;34.15;98819.16;105037;1271;77009;-24
2022/07/09 09:03:45;;;;;;;2.80;1.30;;;;;;;25.94;33.51;98819.19;104873;1271;73301;-25
2022/07/09 09:06:13;;;;;;;2.80;1.10;;;;;;;25.95;34.00;98817.46;105167;1271;63127;-24
2022/07/09 09:08:44;;;;;;;3.50;1.10;;;;;;;25.36;34.44;98814.25;105155;1271;61991;-24
2022/07/09 09:11:24;;;;;;;6.10;1.00;;;;;;;25.53;34.07;98816.48;104699;1271;76527;-25
2022/07/09 09:13:53;;;;;;;1.30;0.80;;;;;;;25.33;33.64;98813.02;104873;1271;77011;-25
2022/07/09 09:16:22;;;;;;;3.20;1.00;;;;;;;25.74;33.74;98819.35;105083;1272;75686;-24
2022/07/09 09:18:51;;;;;;;1.70;1.00;;;;;;;25.91;34.19;98812.89;105144;1271;61083;-25
2022/07/09 09:21:21;;;;;;;1.20;0.80;;;;;;;25.95;34.30;98811.16;105161;1271;62779;-24
2022/07/09 09:23:52;;;;;;;3.60;1.00;;;;;;;25.85;34.47;98812.69;104997;1271;74444;-23
2022/07/09 09:26:23;;;;;;;2.10;1.20;;;;;;;25.72;35.69;98809.78;105087;1271;77318;-23
2022/07/09 09:28:54;;;;;;;2.10;1.00;;;;;;;26.22;34.99;98808.73;104973;1271;73486;-24
2022/07/09 09:31:35;;;;;;;2.40;0.90;;;;;;;26.72;33.57;98806.62;105007;1274;62825;-23
2022/07/09 09:34:06;;;;;;;0.90;0.80;;;;;;;26.87;33.15;98809.21;104818;1271;61532;-24
2022/07/09 09:36:41;;;;;;;2.10;1.00;;;;;;;26.62;33.12;98808.38;105109;1271;76725;-23
2022/07/09 09:39:15;;;;;;;2.10;1.00;;;;;;;26.17;33.64;98806.69;104935;1271;77332;-23
2022/07/09 09:41:47;;;;;;;5.00;1.10;;;;;;;25.57;35.11;98809.48;105150;1274;75531;-23
2022/07/09 09:44:17;;;;;;;2.20;0.90;;;;;;;25.05;37.42;98804.23;105094;1271;61752;-23
2022/07/09 09:46:44;;;;;;;2.10;1.40;;;;;;;24.37;39.45;98811.62;104784;1272;61733;-23
2022/07/09 09:49:14;;;;;;;4.60;0.90;;;;;;;23.99;39.77;98810.63;105136;1271;76366;-23
2022/07/09 09:51:51;;;;;;;2.60;1.00;;;;;;;23.52;40.60;98810.96;104914;1274;76965;-23
2022/07/09 09:54:20;;;;;;;2.20;1.00;;;;;;;23.33;42.28;98808.61;105070;1271;75577;-23
2022/07/09 09:56:48;;;;;;;5.00;1.10;;;;;;;23.22;42.13;98805.88;104837;1271;61123;-23
2022/07/09 09:59:16;;;;;;;2.50;1.30;;;;;;;23.02;42.07;98807.94;105152;1272;62012;-23
2022/07/09 10:01:44;;;;;;;1.60;0.90;;;;;;;22.81;42.88;98806.62;105129;1271;75512;-23
2022/07/09 10:04:12;;;;;;;6.70;1.10;;;;;;;22.85;43.11;98808.31;105165;1271;76825;-23
2022/07/09 10:06:40;;;;;;;2.30;1.10;;;;;;;22.84;42.88;98809.45;105157;1271;75403;-23
2022/07/09 10:09:09;;;;;;;2.10;1.00;;;;;;;22.78;42.87;98805.76;105052;1271;61143;-23
2022/07/09 10:11:46;;;;;;;3.30;0.90;;;;;;;22.81;43.22;98808.29;104735;1271;61047;-23
2022/07/09 10:14:33;;;;;;;2.20;1.30;;;;;;;22.75;42.87;98808.64;104945;1271;75317;-23
2022/07/09 10:17:14;;;;;;;2.20;0.90;;;;;;;22.68;42.27;98805.64;105051;1271;74673;-23
2022/07/09 10:20:04;;;;;;;2.40;0.90;;;;;;;22.65;43.18;98803.83;104795;1271;75424;-23
2022/07/09 10:22:40;;;;;;;1.60;1.00;;;;;;;22.64;42.39;98803.04;105116;1274;61876;-23
2022/07/09 10:25:08;;;;;;;3.60;1.00;;;;;;;22.55;41.69;98797.64;104793;1271;63072;-24
2022/07/09 10:27:46;;;;;;;2.40;1.10;;;;;;;22.63;42.53;98800.52;104734;1271;76816;-25
2022/07/09 10:30:25;;;;;;;3.00;1.00;;;;;;;22.76;42.50;98798.63;104653;1271;76098;-25
2022/07/09 10:33:02;;;;;;;1.50;0.80;;;;;;;22.85;42.49;98796.99;104872;1271;74152;-24
2022/07/09 10:35:30;;;;;;;2.10;1.30;;;;;;;22.81;42.54;98793.95;105077;1272;62477;-24
2022/07/09 10:37:57;;;;;;;4.40;1.10;;;;;;;22.76;42.00;98794.70;105197;1271;62861;-24
2022/07/09 10:40:27;;;;;;;3.90;0.80;;;;;;;22.75;42.98;98796.06;105099;1271;75331;-24
2022/07/09 10:42:59;;;;;;;3.60;1.00;;;;;;;22.61;43.22;98793.39;104834;1271;76976;-23
2022/07/09 10:45:34;;;;;;;1.60;0.90;;;;;;;22.45;44.15;98796.03;104791;1271;75476;-23
2022/07/09 10:48:04;;;;;;;1.50;1.10;;;;;;;22.44;44.53;98791.27;104964;1272;61107;-24
2022/07/09 10:50:32;;;;;;;5.90;1.10;;;;;;;22.36;45.06;98791.64;104666;1272;61162;-23
2022/07/09 10:52:59;;;;;;;3.10;1.20;;;;;;;22.34;45.19;98791.69;104834;1271;75511;-23
2022/07/09 10:55:27;;;;;;;4.60;1.20;;;;;;;22.20;45.19;98786.66;104840;1271;76964;-24
2022/07/09 10:57:54;;;;;;;4.80;1.20;;;;;;;22.10;45.57;98784.51;104753;1271;74186;-24
2022/07/09 11:00:24;;;;;;;1.80;1.00;;;;;;;22.02;45.85;98787.06;105087;1272;62783;-24
2022/07/09 11:02:59;;;;;;;8.40;1.30;;;;;;;22.03;46.29;98787.55;104957;1272;62541;-24
2022/07/09 11:05:26;;;;;;;3.10;1.10;;;;;;;22.03;46.65;98785.67;104986;1272;75357;-23
2022/07/09 11:08:04;;;;;;;2.00;1.20;;;;;;;22.04;46.87;98786.28;105124;1274;75864;-23
2022/07/09 11:10:34;;;;;;;12.40;1.40;;;;;;;21.98;46.97;98786.01;104859;1272;75278;-23
2022/07/09 11:13:02;;;;;;;2.20;1.10;;;;;;;21.88;45.60;98780.60;104638;1274;61108;-23
2022/07/09 11:15:33;;;;;;;1.10;0.80;;;;;;;21.85;45.47;98784.02;104939;1271;62951;-24
2022/07/09 11:18:11;;;;;;;2.60;1.20;;;;;;;21.91;45.91;98784.05;104689;1272;76560;-24
2022/07/09 11:20:46;;;;;;;1.70;1.10;;;;;;;21.95;45.00;98782.86;104838;1271;76934;-23
2022/07/09 11:23:14;;;;;;;3.70;1.00;;;;;;;22.02;45.75;98786.26;105106;1271;75121;-24
2022/07/09 11:25:44;;;;;;;2.70;1.20;;;;;;;22.10;45.35;98780.55;104969;1272;62194;-23
2022/07/09 11:28:23;;;;;;;3.40;1.30;;;;;;;22.22;45.85;98781.39;104980;1271;62792;-24
2022/07/09 11:31:02;;;;;;;3.40;1.50;;;;;;;22.39;45.20;98780.91;105027;1272;75707;-24
2022/07/09 11:34:10;;;;;;;1.30;0.90;;;;;;;22.59;44.59;98778.82;104784;1274;76771;-24